sensor_id;sensor_type;location;lat;lon;timestamp;P1;durP1;ratioP1;P2;durP2;ratioP2
11338;SDS011;5724;42.684;23.252;2024-01-11T00:02:22;17.37;;;8.00;;
11338;SDS011;5724;42.684;23.252;2024-01-11T00:04:48;19.17;;;11.77;;
11338;SDS011;5724;42.684;23.252;2024-01-11T00:07:13;12.93;;;8.57;;
11338;SDS011;5724;42.684;23.252;2024-01-11T00:09:39;25.63;;;11.27;;
11338;SDS011;5724;42.684;23.252;2024-01-11T00:12:06;23.87;;;12.27;;
11338;SDS011;5724;42.684;23.252;2024-01-11T00:14:32;22.37;;;12.90;;
11338;SDS011;5724;42.684;23.252;2024-01-11T00:16:57;9.20;;;7.93;;
11338;SDS011;5724;42.684;23.252;2024-01-11T00:19:23;18.67;;;9.13;;
11338;SDS011;5724;42.684;23.252;2024-01-11T00:21:49;46.37;;;25.10;;
11338;SDS011;5724;42.684;23.252;2024-01-11T00:24:14;42.47;;;25.17;;
11338;SDS011;5724;42.684;23.252;2024-01-11T00:26:40;41.20;;;24.90;;
11338;SDS011;5724;42.684;23.252;2024-01-11T00:29:06;50.13;;;26.40;;
11338;SDS011;5724;42.684;23.252;2024-01-11T00:31:32;43.13;;;26.03;;
11338;SDS011;5724;42.684;23.252;2024-01-11T00:33:58;45.27;;;25.30;;
11338;SDS011;5724;42.684;23.252;2024-01-11T00:36:24;48.37;;;25.20;;
11338;SDS011;5724;42.684;23.252;2024-01-11T00:38:49;43.27;;;24.87;;
11338;SDS011;5724;42.684;23.252;2024-01-11T00:41:15;31.00;;;18.87;;
11338;SDS011;5724;42.684;23.252;2024-01-11T00:43:41;14.53;;;9.63;;
11338;SDS011;5724;42.684;23.252;2024-01-11T00:46:06;6.07;;;5.50;;
11338;SDS011;5724;42.684;23.252;2024-01-11T00:48:32;11.03;;;8.47;;
11338;SDS011;5724;42.684;23.252;2024-01-11T00:50:58;11.50;;;7.10;;
11338;SDS011;5724;42.684;23.252;2024-01-11T00:53:23;16.57;;;8.77;;
11338;SDS011;5724;42.684;23.252;2024-01-11T00:55:49;23.57;;;11.43;;
11338;SDS011;5724;42.684;23.252;2024-01-11T00:58:14;14.23;;;10.43;;
11338;SDS011;5724;42.684;23.252;2024-01-11T01:00:40;17.87;;;10.77;;
11338;SDS011;5724;42.684;23.252;2024-01-11T01:03:05;7.83;;;7.20;;
11338;SDS011;5724;42.684;23.252;2024-01-11T01:05:31;38.13;;;22.50;;
11338;SDS011;5724;42.684;23.252;2024-01-11T01:07:57;35.10;;;21.97;;
11338;SDS011;5724;42.684;23.252;2024-01-11T01:10:22;39.80;;;22.23;;
11338;SDS011;5724;42.684;23.252;2024-01-11T01:12:48;38.33;;;23.27;;
11338;SDS011;5724;42.684;23.252;2024-01-11T01:15:14;38.37;;;20.70;;
11338;SDS011;5724;42.684;23.252;2024-01-11T01:17:39;34.80;;;20.33;;
11338;SDS011;5724;42.684;23.252;2024-01-11T01:20:05;33.87;;;20.63;;
11338;SDS011;5724;42.684;23.252;2024-01-11T01:22:31;29.87;;;18.77;;
11338;SDS011;5724;42.684;23.252;2024-01-11T01:24:57;28.20;;;19.20;;
11338;SDS011;5724;42.684;23.252;2024-01-11T01:27:22;4.20;;;3.60;;
11338;SDS011;5724;42.684;23.252;2024-01-11T01:29:48;12.30;;;6.97;;
11338;SDS011;5724;42.684;23.252;2024-01-11T01:32:14;11.53;;;6.90;;
11338;SDS011;5724;42.684;23.252;2024-01-11T01:34:39;4.17;;;3.37;;
11338;SDS011;5724;42.684;23.252;2024-01-11T01:37:04;13.43;;;7.87;;
11338;SDS011;5724;42.684;23.252;2024-01-11T01:39:31;12.93;;;8.30;;
11338;SDS011;5724;42.684;23.252;2024-01-11T01:41:56;10.90;;;7.07;;
11338;SDS011;5724;42.684;23.252;2024-01-11T01:44:22;6.73;;;6.07;;
11338;SDS011;5724;42.684;23.252;2024-01-11T01:46:47;9.20;;;7.50;;
11338;SDS011;5724;42.684;23.252;2024-01-11T01:49:14;4.83;;;4.33;;
11338;SDS011;5724;42.684;23.252;2024-01-11T01:51:43;35.13;;;20.23;;
11338;SDS011;5724;42.684;23.252;2024-01-11T01:54:08;33.23;;;19.37;;
11338;SDS011;5724;42.684;23.252;2024-01-11T01:56:34;34.63;;;22.23;;
11338;SDS011;5724;42.684;23.252;2024-01-11T01:59:00;32.97;;;19.93;;
11338;SDS011;5724;42.684;23.252;2024-01-11T02:01:26;30.80;;;19.57;;
11338;SDS011;5724;42.684;23.252;2024-01-11T02:03:52;30.50;;;19.50;;
11338;SDS011;5724;42.684;23.252;2024-01-11T02:06:21;39.33;;;20.70;;
11338;SDS011;5724;42.684;23.252;2024-01-11T02:08:51;34.77;;;20.93;;
11338;SDS011;5724;42.684;23.252;2024-01-11T02:11:19;9.00;;;7.43;;
11338;SDS011;5724;42.684;23.252;2024-01-11T02:13:45;6.50;;;5.90;;
11338;SDS011;5724;42.684;23.252;2024-01-11T02:16:11;7.43;;;6.50;;
11338;SDS011;5724;42.684;23.252;2024-01-11T02:18:38;10.50;;;6.67;;
11338;SDS011;5724;42.684;23.252;2024-01-11T02:21:04;20.83;;;10.73;;
11338;SDS011;5724;42.684;23.252;2024-01-11T02:23:34;8.03;;;6.97;;
11338;SDS011;5724;42.684;23.252;2024-01-11T02:26:06;16.73;;;10.00;;
11338;SDS011;5724;42.684;23.252;2024-01-11T02:28:32;16.93;;;11.37;;
11338;SDS011;5724;42.684;23.252;2024-01-11T02:30:57;19.93;;;13.20;;
11338;SDS011;5724;42.684;23.252;2024-01-11T02:33:23;31.90;;;17.00;;
11338;SDS011;5724;42.684;23.252;2024-01-11T02:35:48;40.10;;;20.47;;
11338;SDS011;5724;42.684;23.252;2024-01-11T02:38:15;38.83;;;21.40;;
11338;SDS011;5724;42.684;23.252;2024-01-11T02:40:41;33.10;;;20.80;;
11338;SDS011;5724;42.684;23.252;2024-01-11T02:43:10;35.50;;;21.23;;
11338;SDS011;5724;42.684;23.252;2024-01-11T02:45:36;37.13;;;21.80;;
11338;SDS011;5724;42.684;23.252;2024-01-11T02:48:02;31.77;;;20.47;;
11338;SDS011;5724;42.684;23.252;2024-01-11T02:50:27;35.87;;;20.23;;
11338;SDS011;5724;42.684;23.252;2024-01-11T02:52:53;6.73;;;6.23;;
11338;SDS011;5724;42.684;23.252;2024-01-11T02:55:18;13.23;;;7.87;;
11338;SDS011;5724;42.684;23.252;2024-01-11T02:57:44;10.90;;;7.63;;
11338;SDS011;5724;42.684;23.252;2024-01-11T03:00:09;11.43;;;8.73;;
11338;SDS011;5724;42.684;23.252;2024-01-11T03:02:36;12.90;;;9.70;;
11338;SDS011;5724;42.684;23.252;2024-01-11T03:05:03;13.87;;;10.57;;
11338;SDS011;5724;42.684;23.252;2024-01-11T03:07:29;20.37;;;11.87;;
11338;SDS011;5724;42.684;23.252;2024-01-11T03:09:55;16.47;;;11.23;;
11338;SDS011;5724;42.684;23.252;2024-01-11T03:12:21;18.97;;;9.60;;
11338;SDS011;5724;42.684;23.252;2024-01-11T03:14:47;43.90;;;25.97;;
11338;SDS011;5724;42.684;23.252;2024-01-11T03:17:13;41.10;;;26.20;;
11338;SDS011;5724;42.684;23.252;2024-01-11T03:19:39;48.93;;;28.13;;
11338;SDS011;5724;42.684;23.252;2024-01-11T03:22:05;40.13;;;23.27;;
11338;SDS011;5724;42.684;23.252;2024-01-11T03:24:32;26.37;;;18.10;;
11338;SDS011;5724;42.684;23.252;2024-01-11T03:26:57;27.77;;;17.87;;
11338;SDS011;5724;42.684;23.252;2024-01-11T03:29:23;25.37;;;15.77;;
11338;SDS011;5724;42.684;23.252;2024-01-11T03:31:48;16.57;;;10.33;;
11338;SDS011;5724;42.684;23.252;2024-01-11T03:34:14;9.83;;;7.77;;
11338;SDS011;5724;42.684;23.252;2024-01-11T03:36:39;10.10;;;7.30;;
11338;SDS011;5724;42.684;23.252;2024-01-11T03:39:05;10.70;;;7.33;;
11338;SDS011;5724;42.684;23.252;2024-01-11T03:41:31;7.93;;;5.93;;
11338;SDS011;5724;42.684;23.252;2024-01-11T03:43:57;14.37;;;8.80;;
11338;SDS011;5724;42.684;23.252;2024-01-11T03:46:22;13.03;;;8.57;;
11338;SDS011;5724;42.684;23.252;2024-01-11T03:48:48;6.87;;;5.80;;
11338;SDS011;5724;42.684;23.252;2024-01-11T03:51:13;10.17;;;8.57;;
11338;SDS011;5724;42.684;23.252;2024-01-11T03:53:39;12.97;;;9.10;;
11338;SDS011;5724;42.684;23.252;2024-01-11T03:56:04;26.63;;;16.10;;
11338;SDS011;5724;42.684;23.252;2024-01-11T03:58:30;23.93;;;15.10;;
11338;SDS011;5724;42.684;23.252;2024-01-11T04:00:56;24.20;;;15.60;;
11338;SDS011;5724;42.684;23.252;2024-01-11T04:03:21;28.77;;;16.10;;
11338;SDS011;5724;42.684;23.252;2024-01-11T04:05:46;24.53;;;16.30;;
11338;SDS011;5724;42.684;23.252;2024-01-11T04:08:13;28.60;;;16.13;;
11338;SDS011;5724;42.684;23.252;2024-01-11T04:10:39;25.40;;;16.73;;
11338;SDS011;5724;42.684;23.252;2024-01-11T04:13:06;35.30;;;18.10;;
11338;SDS011;5724;42.684;23.252;2024-01-11T04:15:32;6.23;;;5.67;;
11338;SDS011;5724;42.684;23.252;2024-01-11T04:17:57;9.63;;;8.60;;
11338;SDS011;5724;42.684;23.252;2024-01-11T04:20:23;28.33;;;16.87;;
11338;SDS011;5724;42.684;23.252;2024-01-11T04:22:49;14.13;;;10.30;;
11338;SDS011;5724;42.684;23.252;2024-01-11T04:25:15;20.70;;;10.23;;
11338;SDS011;5724;42.684;23.252;2024-01-11T04:27:41;12.93;;;7.70;;
11338;SDS011;5724;42.684;23.252;2024-01-11T04:30:06;15.93;;;8.60;;
11338;SDS011;5724;42.684;23.252;2024-01-11T04:32:32;6.87;;;5.83;;
11338;SDS011;5724;42.684;23.252;2024-01-11T04:34:57;13.30;;;8.30;;
11338;SDS011;5724;42.684;23.252;2024-01-11T04:37:23;23.33;;;16.00;;
11338;SDS011;5724;42.684;23.252;2024-01-11T04:39:50;29.40;;;17.30;;
11338;SDS011;5724;42.684;23.252;2024-01-11T04:42:15;31.03;;;19.80;;
11338;SDS011;5724;42.684;23.252;2024-01-11T04:44:41;28.17;;;18.67;;
11338;SDS011;5724;42.684;23.252;2024-01-11T04:47:07;33.70;;;20.57;;
11338;SDS011;5724;42.684;23.252;2024-01-11T04:49:33;33.23;;;21.43;;
11338;SDS011;5724;42.684;23.252;2024-01-11T04:51:59;33.33;;;21.07;;
11338;SDS011;5724;42.684;23.252;2024-01-11T04:54:24;33.97;;;21.77;;
11338;SDS011;5724;42.684;23.252;2024-01-11T04:56:50;5.90;;;5.43;;
11338;SDS011;5724;42.684;23.252;2024-01-11T04:59:15;16.00;;;8.80;;
11338;SDS011;5724;42.684;23.252;2024-01-11T05:01:41;21.00;;;11.80;;
11338;SDS011;5724;42.684;23.252;2024-01-11T05:04:07;17.53;;;11.07;;
11338;SDS011;5724;42.684;23.252;2024-01-11T05:06:32;26.30;;;20.40;;
11338;SDS011;5724;42.684;23.252;2024-01-11T05:08:58;13.70;;;8.63;;
11338;SDS011;5724;42.684;23.252;2024-01-11T05:11:23;13.47;;;8.37;;
11338;SDS011;5724;42.684;23.252;2024-01-11T05:13:51;22.10;;;15.17;;
11338;SDS011;5724;42.684;23.252;2024-01-11T05:18:44;22.53;;;14.27;;
11338;SDS011;5724;42.684;23.252;2024-01-11T05:21:10;20.97;;;14.03;;
11338;SDS011;5724;42.684;23.252;2024-01-11T05:23:35;25.07;;;14.63;;
11338;SDS011;5724;42.684;23.252;2024-01-11T05:26:02;20.23;;;14.00;;
11338;SDS011;5724;42.684;23.252;2024-01-11T05:28:27;22.77;;;14.73;;
11338;SDS011;5724;42.684;23.252;2024-01-11T05:30:53;22.87;;;14.83;;
11338;SDS011;5724;42.684;23.252;2024-01-11T05:33:20;14.23;;;4.83;;
11338;SDS011;5724;42.684;23.252;2024-01-11T05:35:45;7.13;;;4.60;;
11338;SDS011;5724;42.684;23.252;2024-01-11T05:38:11;9.47;;;6.20;;
11338;SDS011;5724;42.684;23.252;2024-01-11T05:40:36;13.37;;;7.97;;
11338;SDS011;5724;42.684;23.252;2024-01-11T05:43:02;17.10;;;8.60;;
11338;SDS011;5724;42.684;23.252;2024-01-11T05:45:27;8.73;;;7.17;;
11338;SDS011;5724;42.684;23.252;2024-01-11T05:47:53;8.57;;;6.63;;
11338;SDS011;5724;42.684;23.252;2024-01-11T05:50:18;10.93;;;6.90;;
11338;SDS011;5724;42.684;23.252;2024-01-11T05:52:44;11.40;;;8.27;;
11338;SDS011;5724;42.684;23.252;2024-01-11T05:55:09;11.40;;;8.27;;
11338;SDS011;5724;42.684;23.252;2024-01-11T05:57:35;41.47;;;22.57;;
11338;SDS011;5724;42.684;23.252;2024-01-11T06:00:00;41.67;;;25.30;;
11338;SDS011;5724;42.684;23.252;2024-01-11T06:02:26;46.23;;;25.50;;
11338;SDS011;5724;42.684;23.252;2024-01-11T06:04:52;49.47;;;27.90;;
11338;SDS011;5724;42.684;23.252;2024-01-11T06:07:17;44.67;;;27.70;;
11338;SDS011;5724;42.684;23.252;2024-01-11T06:09:43;21.50;;;10.20;;
11338;SDS011;5724;42.684;23.252;2024-01-11T06:12:08;18.40;;;10.63;;
11338;SDS011;5724;42.684;23.252;2024-01-11T06:14:34;17.20;;;11.57;;
11338;SDS011;5724;42.684;23.252;2024-01-11T06:17:00;11.97;;;10.60;;
11338;SDS011;5724;42.684;23.252;2024-01-11T06:19:25;16.43;;;12.10;;
11338;SDS011;5724;42.684;23.252;2024-01-11T06:21:51;16.00;;;11.97;;
11338;SDS011;5724;42.684;23.252;2024-01-11T06:24:17;18.30;;;11.80;;
11338;SDS011;5724;42.684;23.252;2024-01-11T06:26:43;24.67;;;13.17;;
11338;SDS011;5724;42.684;23.252;2024-01-11T06:29:09;19.77;;;11.03;;
11338;SDS011;5724;42.684;23.252;2024-01-11T06:31:36;12.63;;;11.10;;
11338;SDS011;5724;42.684;23.252;2024-01-11T06:34:02;24.40;;;11.93;;
11338;SDS011;5724;42.684;23.252;2024-01-11T06:36:29;18.97;;;11.73;;
11338;SDS011;5724;42.684;23.252;2024-01-11T06:38:55;16.33;;;11.67;;
11338;SDS011;5724;42.684;23.252;2024-01-11T06:41:21;18.83;;;12.27;;
11338;SDS011;5724;42.684;23.252;2024-01-11T06:43:46;61.60;;;31.90;;
11338;SDS011;5724;42.684;23.252;2024-01-11T06:46:12;59.80;;;32.40;;
11338;SDS011;5724;42.684;23.252;2024-01-11T06:48:37;65.63;;;35.67;;
11338;SDS011;5724;42.684;23.252;2024-01-11T06:51:03;65.63;;;37.20;;
11338;SDS011;5724;42.684;23.252;2024-01-11T06:53:29;68.50;;;41.73;;
11338;SDS011;5724;42.684;23.252;2024-01-11T06:55:54;75.40;;;44.40;;
11338;SDS011;5724;42.684;23.252;2024-01-11T06:58:22;14.13;;;7.97;;
11338;SDS011;5724;42.684;23.252;2024-01-11T07:00:51;13.10;;;11.47;;
11338;SDS011;5724;42.684;23.252;2024-01-11T07:03:17;12.83;;;11.50;;
11338;SDS011;5724;42.684;23.252;2024-01-11T07:05:42;23.97;;;15.47;;
11338;SDS011;5724;42.684;23.252;2024-01-11T07:08:08;39.97;;;18.40;;
11338;SDS011;5724;42.684;23.252;2024-01-11T07:10:34;22.40;;;11.00;;
11338;SDS011;5724;42.684;23.252;2024-01-11T07:12:59;27.57;;;14.47;;
11338;SDS011;5724;42.684;23.252;2024-01-11T07:15:25;11.10;;;6.57;;
11338;SDS011;5724;42.684;23.252;2024-01-11T07:17:50;16.43;;;11.00;;
11338;SDS011;5724;42.684;23.252;2024-01-11T07:20:16;37.80;;;21.57;;
11338;SDS011;5724;42.684;23.252;2024-01-11T07:22:43;45.83;;;29.23;;
11338;SDS011;5724;42.684;23.252;2024-01-11T07:25:09;47.50;;;28.27;;
11338;SDS011;5724;42.684;23.252;2024-01-11T07:27:34;44.73;;;27.63;;
11338;SDS011;5724;42.684;23.252;2024-01-11T07:30:01;37.50;;;23.93;;
11338;SDS011;5724;42.684;23.252;2024-01-11T07:32:27;14.57;;;8.13;;
11338;SDS011;5724;42.684;23.252;2024-01-11T07:34:53;7.93;;;6.27;;
11338;SDS011;5724;42.684;23.252;2024-01-11T07:37:18;11.13;;;9.30;;
11338;SDS011;5724;42.684;23.252;2024-01-11T07:39:44;12.47;;;8.60;;
11338;SDS011;5724;42.684;23.252;2024-01-11T07:42:09;8.27;;;5.97;;
11338;SDS011;5724;42.684;23.252;2024-01-11T07:44:35;12.13;;;8.30;;
11338;SDS011;5724;42.684;23.252;2024-01-11T07:47:00;23.50;;;14.60;;
11338;SDS011;5724;42.684;23.252;2024-01-11T07:49:26;12.53;;;9.33;;
11338;SDS011;5724;42.684;23.252;2024-01-11T07:51:51;19.40;;;8.50;;
11338;SDS011;5724;42.684;23.252;2024-01-11T07:54:17;39.33;;;24.10;;
11338;SDS011;5724;42.684;23.252;2024-01-11T07:56:42;37.33;;;24.03;;
11338;SDS011;5724;42.684;23.252;2024-01-11T07:59:08;36.93;;;24.47;;
11338;SDS011;5724;42.684;23.252;2024-01-11T08:01:38;43.57;;;28.20;;
11338;SDS011;5724;42.684;23.252;2024-01-11T08:04:04;56.17;;;35.37;;
11338;SDS011;5724;42.684;23.252;2024-01-11T08:06:29;56.33;;;36.30;;
11338;SDS011;5724;42.684;23.252;2024-01-11T08:08:55;49.73;;;36.37;;
11338;SDS011;5724;42.684;23.252;2024-01-11T08:11:20;47.87;;;34.73;;
11338;SDS011;5724;42.684;23.252;2024-01-11T08:13:46;44.33;;;29.47;;
11338;SDS011;5724;42.684;23.252;2024-01-11T08:16:15;38.23;;;24.87;;
11338;SDS011;5724;42.684;23.252;2024-01-11T08:18:44;33.43;;;21.33;;
11338;SDS011;5724;42.684;23.252;2024-01-11T08:21:10;32.83;;;22.07;;
11338;SDS011;5724;42.684;23.252;2024-01-11T08:23:42;20.47;;;8.33;;
11338;SDS011;5724;42.684;23.252;2024-01-11T08:26:13;23.23;;;15.13;;
11338;SDS011;5724;42.684;23.252;2024-01-11T08:28:44;5.23;;;4.83;;
11338;SDS011;5724;42.684;23.252;2024-01-11T08:31:09;10.33;;;7.03;;
11338;SDS011;5724;42.684;23.252;2024-01-11T08:33:35;22.80;;;12.67;;
11338;SDS011;5724;42.684;23.252;2024-01-11T08:36:04;8.10;;;6.87;;
11338;SDS011;5724;42.684;23.252;2024-01-11T08:38:30;11.10;;;7.57;;
11338;SDS011;5724;42.684;23.252;2024-01-11T08:40:56;7.23;;;6.27;;
11338;SDS011;5724;42.684;23.252;2024-01-11T08:43:24;12.97;;;9.40;;
11338;SDS011;5724;42.684;23.252;2024-01-11T08:45:50;15.63;;;8.93;;
11338;SDS011;5724;42.684;23.252;2024-01-11T08:48:15;10.87;;;7.23;;
11338;SDS011;5724;42.684;23.252;2024-01-11T08:50:42;9.57;;;7.83;;
11338;SDS011;5724;42.684;23.252;2024-01-11T08:53:07;16.77;;;9.33;;
11338;SDS011;5724;42.684;23.252;2024-01-11T08:55:33;11.80;;;8.93;;
11338;SDS011;5724;42.684;23.252;2024-01-11T08:57:58;4.90;;;4.60;;
11338;SDS011;5724;42.684;23.252;2024-01-11T09:00:24;8.33;;;7.20;;
11338;SDS011;5724;42.684;23.252;2024-01-11T09:02:49;7.70;;;6.90;;
11338;SDS011;5724;42.684;23.252;2024-01-11T09:05:15;16.97;;;10.60;;
11338;SDS011;5724;42.684;23.252;2024-01-11T09:07:40;10.53;;;7.53;;
11338;SDS011;5724;42.684;23.252;2024-01-11T09:10:07;16.90;;;9.00;;
11338;SDS011;5724;42.684;23.252;2024-01-11T09:12:36;14.20;;;12.80;;
11338;SDS011;5724;42.684;23.252;2024-01-11T09:15:02;10.13;;;7.03;;
11338;SDS011;5724;42.684;23.252;2024-01-11T09:17:28;17.40;;;10.13;;
11338;SDS011;5724;42.684;23.252;2024-01-11T09:19:53;10.47;;;6.70;;
11338;SDS011;5724;42.684;23.252;2024-01-11T09:22:19;29.60;;;19.00;;
11338;SDS011;5724;42.684;23.252;2024-01-11T09:24:44;8.20;;;7.37;;
11338;SDS011;5724;42.684;23.252;2024-01-11T09:27:10;17.67;;;12.43;;
11338;SDS011;5724;42.684;23.252;2024-01-11T09:29:35;18.80;;;14.43;;
11338;SDS011;5724;42.684;23.252;2024-01-11T09:32:01;8.03;;;7.23;;
11338;SDS011;5724;42.684;23.252;2024-01-11T09:34:26;12.43;;;9.50;;
11338;SDS011;5724;42.684;23.252;2024-01-11T09:36:52;30.70;;;17.37;;
11338;SDS011;5724;42.684;23.252;2024-01-11T09:39:17;19.03;;;13.30;;
11338;SDS011;5724;42.684;23.252;2024-01-11T09:41:47;55.17;;;36.43;;
11338;SDS011;5724;42.684;23.252;2024-01-11T09:44:21;56.13;;;36.30;;
11338;SDS011;5724;42.684;23.252;2024-01-11T09:46:47;52.70;;;34.60;;
11338;SDS011;5724;42.684;23.252;2024-01-11T09:49:13;48.97;;;32.70;;
11338;SDS011;5724;42.684;23.252;2024-01-11T09:51:42;43.73;;;31.50;;
11338;SDS011;5724;42.684;23.252;2024-01-11T09:54:09;17.63;;;10.57;;
11338;SDS011;5724;42.684;23.252;2024-01-11T09:56:35;14.93;;;8.87;;
11338;SDS011;5724;42.684;23.252;2024-01-11T09:59:02;21.63;;;8.37;;
11338;SDS011;5724;42.684;23.252;2024-01-11T10:01:32;21.53;;;14.20;;
11338;SDS011;5724;42.684;23.252;2024-01-11T10:03:57;10.63;;;7.80;;
11338;SDS011;5724;42.684;23.252;2024-01-11T10:06:24;25.53;;;15.73;;
11338;SDS011;5724;42.684;23.252;2024-01-11T10:08:52;20.30;;;11.87;;
11338;SDS011;5724;42.684;23.252;2024-01-11T10:11:17;11.63;;;8.67;;
11338;SDS011;5724;42.684;23.252;2024-01-11T10:13:43;22.53;;;12.93;;
11338;SDS011;5724;42.684;23.252;2024-01-11T10:16:09;9.10;;;8.10;;
11338;SDS011;5724;42.684;23.252;2024-01-11T10:18:38;18.53;;;12.50;;
11338;SDS011;5724;42.684;23.252;2024-01-11T10:21:04;29.37;;;14.13;;
11338;SDS011;5724;42.684;23.252;2024-01-11T10:23:33;13.07;;;10.90;;
11338;SDS011;5724;42.684;23.252;2024-01-11T10:25:59;12.63;;;10.33;;
11338;SDS011;5724;42.684;23.252;2024-01-11T10:28:25;34.10;;;23.77;;
11338;SDS011;5724;42.684;23.252;2024-01-11T10:30:52;34.20;;;23.63;;
11338;SDS011;5724;42.684;23.252;2024-01-11T10:33:23;33.77;;;21.10;;
11338;SDS011;5724;42.684;23.252;2024-01-11T10:35:49;38.20;;;22.43;;
11338;SDS011;5724;42.684;23.252;2024-01-11T10:38:15;31.80;;;22.13;;
11338;SDS011;5724;42.684;23.252;2024-01-11T10:40:41;30.50;;;22.10;;
11338;SDS011;5724;42.684;23.252;2024-01-11T10:43:10;22.47;;;12.73;;
11338;SDS011;5724;42.684;23.252;2024-01-11T10:45:37;8.37;;;7.10;;
11338;SDS011;5724;42.684;23.252;2024-01-11T10:50:44;16.70;;;10.13;;
11338;SDS011;5724;42.684;23.252;2024-01-11T10:55:49;21.07;;;11.77;;
11338;SDS011;5724;42.684;23.252;2024-01-11T10:58:15;10.17;;;8.13;;
11338;SDS011;5724;42.684;23.252;2024-01-11T11:00:41;19.87;;;10.27;;
11338;SDS011;5724;42.684;23.252;2024-01-11T11:03:07;27.87;;;14.03;;
11338;SDS011;5724;42.684;23.252;2024-01-11T11:05:36;9.53;;;6.10;;
11338;SDS011;5724;42.684;23.252;2024-01-11T11:08:03;8.30;;;6.07;;
11338;SDS011;5724;42.684;23.252;2024-01-11T11:10:31;13.83;;;9.20;;
11338;SDS011;5724;42.684;23.252;2024-01-11T11:12:59;13.23;;;7.83;;
11338;SDS011;5724;42.684;23.252;2024-01-11T11:15:28;10.83;;;6.73;;
11338;SDS011;5724;42.684;23.252;2024-01-11T11:17:54;13.57;;;8.23;;
11338;SDS011;5724;42.684;23.252;2024-01-11T11:20:20;8.30;;;5.60;;
11338;SDS011;5724;42.684;23.252;2024-01-11T11:23:04;12.30;;;8.23;;
11338;SDS011;5724;42.684;23.252;2024-01-11T11:25:37;8.80;;;7.33;;
11338;SDS011;5724;42.684;23.252;2024-01-11T11:28:04;6.47;;;5.63;;
11338;SDS011;5724;42.684;23.252;2024-01-11T11:30:30;21.00;;;12.53;;
11338;SDS011;5724;42.684;23.252;2024-01-11T11:32:56;9.20;;;7.60;;
11338;SDS011;5724;42.684;23.252;2024-01-11T11:35:24;6.23;;;5.80;;
11338;SDS011;5724;42.684;23.252;2024-01-11T11:37:56;6.60;;;4.17;;
11338;SDS011;5724;42.684;23.252;2024-01-11T11:40:31;11.83;;;8.93;;
11338;SDS011;5724;42.684;23.252;2024-01-11T11:43:08;10.40;;;5.77;;
11338;SDS011;5724;42.684;23.252;2024-01-11T11:45:34;20.03;;;9.50;;
11338;SDS011;5724;42.684;23.252;2024-01-11T11:48:01;9.77;;;4.20;;
11338;SDS011;5724;42.684;23.252;2024-01-11T11:53:42;7.50;;;3.80;;
11338;SDS011;5724;42.684;23.252;2024-01-11T11:56:09;5.37;;;4.97;;
11338;SDS011;5724;42.684;23.252;2024-01-11T11:58:35;4.97;;;4.07;;
11338;SDS011;5724;42.684;23.252;2024-01-11T12:01:02;2.97;;;2.73;;
11338;SDS011;5724;42.684;23.252;2024-01-11T12:03:32;6.27;;;4.50;;
11338;SDS011;5724;42.684;23.252;2024-01-11T12:06:02;3.30;;;3.00;;
11338;SDS011;5724;42.684;23.252;2024-01-11T12:08:28;10.30;;;8.50;;
11338;SDS011;5724;42.684;23.252;2024-01-11T12:10:54;3.67;;;3.37;;
11338;SDS011;5724;42.684;23.252;2024-01-11T12:13:20;2.93;;;2.73;;
11338;SDS011;5724;42.684;23.252;2024-01-11T12:15:46;5.80;;;2.80;;
11338;SDS011;5724;42.684;23.252;2024-01-11T12:18:11;2.93;;;2.67;;
11338;SDS011;5724;42.684;23.252;2024-01-11T12:20:37;2.93;;;2.40;;
11338;SDS011;5724;42.684;23.252;2024-01-11T12:23:03;2.40;;;2.20;;
11338;SDS011;5724;42.684;23.252;2024-01-11T12:25:30;1.87;;;1.60;;
11338;SDS011;5724;42.684;23.252;2024-01-11T12:27:56;2.13;;;2.03;;
11338;SDS011;5724;42.684;23.252;2024-01-11T12:30:23;2.60;;;2.40;;
11338;SDS011;5724;42.684;23.252;2024-01-11T12:32:49;2.00;;;1.90;;
11338;SDS011;5724;42.684;23.252;2024-01-11T12:35:16;2.73;;;2.53;;
11338;SDS011;5724;42.684;23.252;2024-01-11T12:37:52;2.30;;;2.20;;
11338;SDS011;5724;42.684;23.252;2024-01-11T12:40:23;1.83;;;1.73;;
11338;SDS011;5724;42.684;23.252;2024-01-11T12:42:49;1.50;;;1.47;;
11338;SDS011;5724;42.684;23.252;2024-01-11T12:45:18;1.70;;;1.60;;
11338;SDS011;5724;42.684;23.252;2024-01-11T12:47:44;2.87;;;2.20;;
11338;SDS011;5724;42.684;23.252;2024-01-11T12:50:13;1.63;;;1.60;;
11338;SDS011;5724;42.684;23.252;2024-01-11T12:52:38;1.93;;;1.83;;
11338;SDS011;5724;42.684;23.252;2024-01-11T12:55:04;1.83;;;1.73;;
11338;SDS011;5724;42.684;23.252;2024-01-11T12:57:43;1.80;;;1.70;;
11338;SDS011;5724;42.684;23.252;2024-01-11T13:00:14;1.60;;;1.50;;
11338;SDS011;5724;42.684;23.252;2024-01-11T13:02:41;1.50;;;1.40;;
11338;SDS011;5724;42.684;23.252;2024-01-11T13:05:11;1.47;;;1.37;;
11338;SDS011;5724;42.684;23.252;2024-01-11T13:07:37;1.83;;;1.67;;
11338;SDS011;5724;42.684;23.252;2024-01-11T13:10:03;3.10;;;2.90;;
11338;SDS011;5724;42.684;23.252;2024-01-11T13:12:30;2.77;;;2.57;;
11338;SDS011;5724;42.684;23.252;2024-01-11T13:14:55;2.10;;;2.00;;
11338;SDS011;5724;42.684;23.252;2024-01-11T13:17:21;2.20;;;2.10;;
11338;SDS011;5724;42.684;23.252;2024-01-11T13:19:47;3.17;;;2.90;;
11338;SDS011;5724;42.684;23.252;2024-01-11T13:22:12;3.37;;;1.97;;
11338;SDS011;5724;42.684;23.252;2024-01-11T13:24:38;1.80;;;1.70;;
11338;SDS011;5724;42.684;23.252;2024-01-11T13:27:04;2.40;;;2.20;;
11338;SDS011;5724;42.684;23.252;2024-01-11T13:29:29;2.10;;;1.97;;
11338;SDS011;5724;42.684;23.252;2024-01-11T13:31:55;1.63;;;1.37;;
11338;SDS011;5724;42.684;23.252;2024-01-11T13:34:20;2.80;;;2.03;;
11338;SDS011;5724;42.684;23.252;2024-01-11T13:36:46;1.43;;;1.37;;
11338;SDS011;5724;42.684;23.252;2024-01-11T13:39:11;2.00;;;1.83;;
11338;SDS011;5724;42.684;23.252;2024-01-11T13:41:37;3.80;;;2.43;;
11338;SDS011;5724;42.684;23.252;2024-01-11T13:44:03;2.60;;;2.40;;
11338;SDS011;5724;42.684;23.252;2024-01-11T13:46:31;2.10;;;1.23;;
11338;SDS011;5724;42.684;23.252;2024-01-11T13:48:57;4.97;;;2.00;;
11338;SDS011;5724;42.684;23.252;2024-01-11T13:51:23;2.37;;;2.27;;
11338;SDS011;5724;42.684;23.252;2024-01-11T13:53:49;1.97;;;1.87;;
11338;SDS011;5724;42.684;23.252;2024-01-11T13:56:14;1.33;;;1.23;;
11338;SDS011;5724;42.684;23.252;2024-01-11T13:58:40;3.57;;;2.40;;
11338;SDS011;5724;42.684;23.252;2024-01-11T14:01:07;2.10;;;2.00;;
11338;SDS011;5724;42.684;23.252;2024-01-11T14:03:34;2.10;;;2.00;;
11338;SDS011;5724;42.684;23.252;2024-01-11T14:05:59;2.60;;;2.40;;
11338;SDS011;5724;42.684;23.252;2024-01-11T14:08:26;3.23;;;2.83;;
11338;SDS011;5724;42.684;23.252;2024-01-11T14:10:52;1.93;;;1.83;;
11338;SDS011;5724;42.684;23.252;2024-01-11T14:13:19;7.40;;;3.77;;
11338;SDS011;5724;42.684;23.252;2024-01-11T14:15:45;3.00;;;2.50;;
11338;SDS011;5724;42.684;23.252;2024-01-11T14:18:13;2.37;;;2.17;;
11338;SDS011;5724;42.684;23.252;2024-01-11T14:20:38;3.37;;;3.07;;
11338;SDS011;5724;42.684;23.252;2024-01-11T14:23:07;3.10;;;2.90;;
11338;SDS011;5724;42.684;23.252;2024-01-11T14:25:33;2.03;;;1.93;;
11338;SDS011;5724;42.684;23.252;2024-01-11T14:27:59;2.57;;;2.40;;
11338;SDS011;5724;42.684;23.252;2024-01-11T14:30:25;3.30;;;2.90;;
11338;SDS011;5724;42.684;23.252;2024-01-11T14:32:51;4.30;;;3.10;;
11338;SDS011;5724;42.684;23.252;2024-01-11T14:35:17;7.10;;;3.60;;
11338;SDS011;5724;42.684;23.252;2024-01-11T14:37:42;6.27;;;3.30;;
11338;SDS011;5724;42.684;23.252;2024-01-11T14:40:09;4.67;;;4.30;;